BA-0001 weather

Sport airfield Ciljuge
Tuzla, Federacija Bosna i Hercegovina, Bosnia and Herzegovina

Public forecast

Using degrees Celsius for public forecast. Weather courtesy of forecast.io.

METAR (pilot weather report)

Closest report is Tuzla International Airport, 2.1 nm (3.9 km) NE. Retrieved 2019/09/17 22:00 UTC (2 hours ago):

LQTZ 172200Z 00000KT 9000 NSC 15/14 Q1013

TAF (pilot weather forecast)

Closest forecast is Tuzla International Airport, 2.1 nm (3.9 km) NE. Retrieved 2019/09/17 22:36 UTC (1 hour ago):

TAF LQTZ 172227Z 1722/1818 CNL